This is the latest recevied weather packets stored in our database for station/object W2TAO. If no packets are shown the sender has not sent any weather packets the latest 1 day(s).
| Time | Temp. | Humidity | Pressure | Rain* | Wind** | Luminosity | Snow |
|---|---|---|---|---|---|---|---|
| 1778107255 | 15° C | 99% | 1008.2 hPa | 4.83 mm | - | 9 W/m² | - |
| 1778106951 | 15° C | 99% | 1007.8 hPa | 2.29 mm | - | 3 W/m² | - |
| 1778106041 | 15.56° C | 99% | 1007.7 hPa | 0 mm | - | 11 W/m² | - |
| 1778105132 | 15.56° C | 99% | 1007.7 hPa | 0 mm | - | 38 W/m² | - |
| 1778104525 | 15.56° C | 99% | 1007.6 hPa | 0 mm | - | 97 W/m² | - |
| 1778103918 | 15.56° C | 99% | 1007.5 hPa | 0 mm | - | 64 W/m² | - |
| 1778103615 | 15.56° C | 99% | 1007.6 hPa | 0 mm | - | 113 W/m² | - |
| 1778102401 | 15° C | 99% | 1007.5 hPa | 0 mm | - | 31 W/m² | - |
| 1778102097 | 15° C | 99% | 1007.4 hPa | 0 mm | - | 52 W/m² | - |
| 1778101188 | 15.56° C | 99% | 1007.4 hPa | 0 mm | - | 65 W/m² | - |
| 1778100884 | 15.56° C | 99% | 1007.2 hPa | 0 mm | - | 108 W/m² | - |
| 1778100580 | 15.56° C | 99% | 1007.3 hPa | 0 mm | - | 165 W/m² | - |
| 1778097247 | 15° C | 99% | 1007.5 hPa | 0 mm | - | 84 W/m² | - |
| 1778094821 | 15° C | 99% | 1008.1 hPa | 0 mm | - | 82 W/m² | - |
| 1778093911 | 15° C | 99% | 1008.2 hPa | 0 mm | - | 137 W/m² | - |
| 1778093608 | 15° C | 99% | 1008.2 hPa | 0 mm | - | 134 W/m² | - |
| 1778093305 | 15° C | 99% | 1008.3 hPa | 0 mm | - | 173 W/m² | - |
| 1778092092 | 14.44° C | 99% | 1008.5 hPa | 0.51 mm | - | 135 W/m² | - |
| 1778090274 | 14.44° C | 99% | 1008.6 hPa | 0 mm | - | 61 W/m² | - |
| 1778089365 | 14.44° C | 99% | 1008.5 hPa | 0 mm | - | 56 W/m² | - |
| 1778089063 | 14.44° C | 99% | 1008.6 hPa | 0.51 mm | - | 57 W/m² | - |
| 1778088153 | 14.44° C | 99% | 1008.6 hPa | 0.51 mm | - | 78 W/m² | - |
| 1778086337 | 14.44° C | 99% | 1008.8 hPa | 1.27 mm | - | 35 W/m² | - |
| 1778086034 | 14.44° C | 99% | 1008.6 hPa | 0 mm | - | 27 W/m² | - |
| 1778085731 | 14.44° C | 99% | 1008.8 hPa | 0.51 mm | - | 42 W/m² | - |
* Rain latest hour (hover to see other rain measurements)
** Current wind speed in m/s (hover to see current wind gust speed)